sensor_id;sensor_type;location;lat;lon;timestamp;P1;durP1;ratioP1;P2;durP2;ratioP2
72904;SDS011;61048;52.162;4.516;2023-10-09T00:02:12;5.22;;;2.30;;
72904;SDS011;61048;52.162;4.516;2023-10-09T00:04:40;4.53;;;2.08;;
72904;SDS011;61048;52.162;4.516;2023-10-09T00:07:10;3.25;;;1.92;;
72904;SDS011;61048;52.162;4.516;2023-10-09T00:09:38;4.13;;;2.08;;
72904;SDS011;61048;52.162;4.516;2023-10-09T00:12:17;3.78;;;2.00;;
72904;SDS011;61048;52.162;4.516;2023-10-09T00:14:47;3.50;;;1.95;;
72904;SDS011;61048;52.162;4.516;2023-10-09T00:17:15;3.72;;;2.10;;
72904;SDS011;61048;52.162;4.516;2023-10-09T00:19:43;4.28;;;2.67;;
72904;SDS011;61048;52.162;4.516;2023-10-09T00:22:11;4.70;;;2.40;;
72904;SDS011;61048;52.162;4.516;2023-10-09T00:24:50;4.28;;;2.05;;
72904;SDS011;61048;52.162;4.516;2023-10-09T00:27:36;4.82;;;3.20;;
72904;SDS011;61048;52.162;4.516;2023-10-09T00:30:07;5.10;;;2.30;;
72904;SDS011;61048;52.162;4.516;2023-10-09T00:32:36;4.15;;;2.55;;
72904;SDS011;61048;52.162;4.516;2023-10-09T00:35:17;4.55;;;2.58;;
72904;SDS011;61048;52.162;4.516;2023-10-09T00:38:03;4.10;;;1.95;;
72904;SDS011;61048;52.162;4.516;2023-10-09T00:40:39;5.60;;;2.55;;
72904;SDS011;61048;52.162;4.516;2023-10-09T00:43:13;3.53;;;1.90;;
72904;SDS011;61048;52.162;4.516;2023-10-09T00:45:40;3.80;;;1.70;;
72904;SDS011;61048;52.162;4.516;2023-10-09T00:48:09;4.25;;;1.77;;
72904;SDS011;61048;52.162;4.516;2023-10-09T00:50:39;3.83;;;2.05;;
72904;SDS011;61048;52.162;4.516;2023-10-09T00:53:17;3.90;;;2.35;;
72904;SDS011;61048;52.162;4.516;2023-10-09T00:55:55;4.90;;;2.20;;
72904;SDS011;61048;52.162;4.516;2023-10-09T00:58:24;5.30;;;3.33;;
72904;SDS011;61048;52.162;4.516;2023-10-09T01:00:56;4.97;;;2.33;;
72904;SDS011;61048;52.162;4.516;2023-10-09T01:03:24;4.57;;;1.90;;
72904;SDS011;61048;52.162;4.516;2023-10-09T01:05:54;4.47;;;2.10;;
72904;SDS011;61048;52.162;4.516;2023-10-09T01:08:41;4.03;;;1.42;;
72904;SDS011;61048;52.162;4.516;2023-10-09T01:11:13;4.68;;;2.35;;
72904;SDS011;61048;52.162;4.516;2023-10-09T01:13:45;7.70;;;1.40;;
72904;SDS011;61048;52.162;4.516;2023-10-09T01:16:19;5.05;;;1.50;;
72904;SDS011;61048;52.162;4.516;2023-10-09T01:18:48;5.38;;;2.40;;
72904;SDS011;61048;52.162;4.516;2023-10-09T01:21:16;3.90;;;2.13;;
72904;SDS011;61048;52.162;4.516;2023-10-09T01:23:47;4.68;;;2.40;;
72904;SDS011;61048;52.162;4.516;2023-10-09T01:26:28;5.05;;;2.25;;
72904;SDS011;61048;52.162;4.516;2023-10-09T01:28:57;3.58;;;1.23;;
72904;SDS011;61048;52.162;4.516;2023-10-09T01:31:25;5.13;;;2.13;;
72904;SDS011;61048;52.162;4.516;2023-10-09T01:33:52;6.28;;;2.05;;
72904;SDS011;61048;52.162;4.516;2023-10-09T01:36:24;4.15;;;2.17;;
72904;SDS011;61048;52.162;4.516;2023-10-09T01:38:58;5.72;;;2.25;;
72904;SDS011;61048;52.162;4.516;2023-10-09T01:41:25;5.18;;;2.30;;
72904;SDS011;61048;52.162;4.516;2023-10-09T01:43:53;4.35;;;2.20;;
72904;SDS011;61048;52.162;4.516;2023-10-09T01:46:25;5.45;;;2.40;;
72904;SDS011;61048;52.162;4.516;2023-10-09T01:48:52;3.35;;;1.88;;
72904;SDS011;61048;52.162;4.516;2023-10-09T01:51:19;5.47;;;3.20;;
72904;SDS011;61048;52.162;4.516;2023-10-09T01:53:46;5.93;;;1.90;;
72904;SDS011;61048;52.162;4.516;2023-10-09T01:56:21;4.45;;;2.15;;
72904;SDS011;61048;52.162;4.516;2023-10-09T01:58:48;6.65;;;2.15;;
72904;SDS011;61048;52.162;4.516;2023-10-09T02:01:15;5.88;;;2.22;;
72904;SDS011;61048;52.162;4.516;2023-10-09T02:03:42;4.32;;;1.45;;
72904;SDS011;61048;52.162;4.516;2023-10-09T02:06:10;5.65;;;2.72;;
72904;SDS011;61048;52.162;4.516;2023-10-09T02:08:59;5.93;;;2.30;;
72904;SDS011;61048;52.162;4.516;2023-10-09T02:11:28;5.60;;;2.38;;
72904;SDS011;61048;52.162;4.516;2023-10-09T02:14:06;3.45;;;2.55;;
72904;SDS011;61048;52.162;4.516;2023-10-09T02:16:44;5.03;;;1.77;;
72904;SDS011;61048;52.162;4.516;2023-10-09T02:19:27;5.97;;;2.40;;
72904;SDS011;61048;52.162;4.516;2023-10-09T02:21:59;5.13;;;2.22;;
72904;SDS011;61048;52.162;4.516;2023-10-09T02:24:27;4.43;;;1.70;;
72904;SDS011;61048;52.162;4.516;2023-10-09T02:27:16;6.03;;;2.55;;
72904;SDS011;61048;52.162;4.516;2023-10-09T02:30:05;4.25;;;2.70;;
72904;SDS011;61048;52.162;4.516;2023-10-09T02:32:50;3.13;;;2.00;;
72904;SDS011;61048;52.162;4.516;2023-10-09T02:35:18;6.32;;;1.77;;
72904;SDS011;61048;52.162;4.516;2023-10-09T02:37:47;4.40;;;1.98;;
72904;SDS011;61048;52.162;4.516;2023-10-09T02:40:14;4.75;;;2.33;;
72904;SDS011;61048;52.162;4.516;2023-10-09T02:42:51;4.72;;;2.30;;
72904;SDS011;61048;52.162;4.516;2023-10-09T02:45:18;7.68;;;2.45;;
72904;SDS011;61048;52.162;4.516;2023-10-09T02:47:45;4.18;;;2.30;;
72904;SDS011;61048;52.162;4.516;2023-10-09T02:50:14;4.78;;;2.13;;
72904;SDS011;61048;52.162;4.516;2023-10-09T02:52:53;4.72;;;2.65;;
72904;SDS011;61048;52.162;4.516;2023-10-09T02:55:25;5.75;;;2.88;;
72904;SDS011;61048;52.162;4.516;2023-10-09T02:57:54;4.20;;;2.40;;
72904;SDS011;61048;52.162;4.516;2023-10-09T03:00:30;5.45;;;2.47;;
72904;SDS011;61048;52.162;4.516;2023-10-09T03:03:01;4.82;;;2.10;;
72904;SDS011;61048;52.162;4.516;2023-10-09T03:05:32;7.45;;;2.60;;
72904;SDS011;61048;52.162;4.516;2023-10-09T03:07:59;5.10;;;1.92;;
72904;SDS011;61048;52.162;4.516;2023-10-09T03:10:27;4.35;;;2.70;;
72904;SDS011;61048;52.162;4.516;2023-10-09T03:12:55;6.90;;;2.65;;
72904;SDS011;61048;52.162;4.516;2023-10-09T03:15:26;4.53;;;2.22;;
72904;SDS011;61048;52.162;4.516;2023-10-09T03:18:00;6.40;;;2.78;;
72904;SDS011;61048;52.162;4.516;2023-10-09T03:20:29;6.82;;;3.08;;
72904;SDS011;61048;52.162;4.516;2023-10-09T03:22:56;4.40;;;2.45;;
72904;SDS011;61048;52.162;4.516;2023-10-09T03:25:26;4.65;;;2.47;;
72904;SDS011;61048;52.162;4.516;2023-10-09T03:27:53;5.85;;;2.38;;
72904;SDS011;61048;52.162;4.516;2023-10-09T03:30:22;4.55;;;2.53;;
72904;SDS011;61048;52.162;4.516;2023-10-09T03:32:49;6.18;;;1.90;;
72904;SDS011;61048;52.162;4.516;2023-10-09T03:35:17;3.85;;;2.03;;
72904;SDS011;61048;52.162;4.516;2023-10-09T03:37:50;5.47;;;2.55;;
72904;SDS011;61048;52.162;4.516;2023-10-09T03:40:22;4.95;;;2.20;;
72904;SDS011;61048;52.162;4.516;2023-10-09T03:42:50;3.85;;;2.38;;
72904;SDS011;61048;52.162;4.516;2023-10-09T03:45:17;5.60;;;2.75;;
72904;SDS011;61048;52.162;4.516;2023-10-09T03:47:52;5.68;;;2.53;;
72904;SDS011;61048;52.162;4.516;2023-10-09T03:50:27;5.70;;;2.67;;
72904;SDS011;61048;52.162;4.516;2023-10-09T03:53:03;5.50;;;2.40;;
72904;SDS011;61048;52.162;4.516;2023-10-09T03:55:37;5.18;;;2.95;;
72904;SDS011;61048;52.162;4.516;2023-10-09T03:58:04;5.47;;;2.40;;
72904;SDS011;61048;52.162;4.516;2023-10-09T04:00:32;5.32;;;2.45;;
72904;SDS011;61048;52.162;4.516;2023-10-09T04:03:11;7.38;;;2.83;;
72904;SDS011;61048;52.162;4.516;2023-10-09T04:05:40;6.10;;;2.95;;
72904;SDS011;61048;52.162;4.516;2023-10-09T04:08:08;7.55;;;2.67;;
72904;SDS011;61048;52.162;4.516;2023-10-09T04:10:39;7.80;;;2.25;;
72904;SDS011;61048;52.162;4.516;2023-10-09T04:13:18;5.85;;;2.63;;
72904;SDS011;61048;52.162;4.516;2023-10-09T04:15:49;5.43;;;3.40;;
72904;SDS011;61048;52.162;4.516;2023-10-09T04:18:20;7.63;;;2.38;;
72904;SDS011;61048;52.162;4.516;2023-10-09T04:20:56;5.53;;;3.08;;
72904;SDS011;61048;52.162;4.516;2023-10-09T04:23:43;5.03;;;2.80;;
72904;SDS011;61048;52.162;4.516;2023-10-09T04:26:34;5.18;;;2.45;;
72904;SDS011;61048;52.162;4.516;2023-10-09T04:29:02;7.22;;;2.55;;
72904;SDS011;61048;52.162;4.516;2023-10-09T04:31:31;4.72;;;2.10;;
72904;SDS011;61048;52.162;4.516;2023-10-09T04:34:04;6.10;;;2.72;;
72904;SDS011;61048;52.162;4.516;2023-10-09T04:36:54;7.10;;;2.78;;
72904;SDS011;61048;52.162;4.516;2023-10-09T04:39:25;6.70;;;2.47;;
72904;SDS011;61048;52.162;4.516;2023-10-09T04:42:11;7.82;;;2.42;;
72904;SDS011;61048;52.162;4.516;2023-10-09T04:45:03;6.50;;;2.63;;
72904;SDS011;61048;52.162;4.516;2023-10-09T04:48:05;4.53;;;2.58;;
72904;SDS011;61048;52.162;4.516;2023-10-09T04:50:35;6.25;;;2.60;;
72904;SDS011;61048;52.162;4.516;2023-10-09T04:53:10;11.45;;;3.92;;
72904;SDS011;61048;52.162;4.516;2023-10-09T04:55:53;85.40;;;21.48;;
72904;SDS011;61048;52.162;4.516;2023-10-09T05:00:50;88.43;;;22.35;;
72904;SDS011;61048;52.162;4.516;2023-10-09T05:03:37;85.93;;;20.75;;
72904;SDS011;61048;52.162;4.516;2023-10-09T05:06:12;87.93;;;24.75;;
72904;SDS011;61048;52.162;4.516;2023-10-09T05:09:08;80.75;;;20.40;;
72904;SDS011;61048;52.162;4.516;2023-10-09T05:11:38;73.38;;;18.20;;
72904;SDS011;61048;52.162;4.516;2023-10-09T05:14:25;70.63;;;19.02;;
72904;SDS011;61048;52.162;4.516;2023-10-09T05:17:03;65.13;;;17.80;;
72904;SDS011;61048;52.162;4.516;2023-10-09T05:19:31;54.08;;;16.00;;
72904;SDS011;61048;52.162;4.516;2023-10-09T05:22:26;55.42;;;14.50;;
72904;SDS011;61048;52.162;4.516;2023-10-09T05:25:04;51.55;;;14.82;;
72904;SDS011;61048;52.162;4.516;2023-10-09T05:27:55;55.25;;;14.50;;
72904;SDS011;61048;52.162;4.516;2023-10-09T05:30:41;48.42;;;14.00;;
72904;SDS011;61048;52.162;4.516;2023-10-09T05:33:08;41.80;;;13.40;;
72904;SDS011;61048;52.162;4.516;2023-10-09T05:35:52;47.60;;;13.13;;
72904;SDS011;61048;52.162;4.516;2023-10-09T05:38:43;42.05;;;12.75;;
72904;SDS011;61048;52.162;4.516;2023-10-09T05:41:23;33.67;;;11.32;;
72904;SDS011;61048;52.162;4.516;2023-10-09T05:44:08;36.60;;;11.50;;
72904;SDS011;61048;52.162;4.516;2023-10-09T05:46:52;32.83;;;11.20;;
72904;SDS011;61048;52.162;4.516;2023-10-09T05:49:47;35.50;;;10.55;;
72904;SDS011;61048;52.162;4.516;2023-10-09T05:52:31;30.42;;;10.18;;
72904;SDS011;61048;52.162;4.516;2023-10-09T05:55:20;32.40;;;10.63;;
72904;SDS011;61048;52.162;4.516;2023-10-09T05:58:01;29.92;;;9.95;;
72904;SDS011;61048;52.162;4.516;2023-10-09T06:00:46;33.35;;;9.73;;
72904;SDS011;61048;52.162;4.516;2023-10-09T06:03:30;23.13;;;8.13;;
72904;SDS011;61048;52.162;4.516;2023-10-09T06:06:35;23.30;;;8.00;;
72904;SDS011;61048;52.162;4.516;2023-10-09T06:09:10;28.00;;;8.38;;
72904;SDS011;61048;52.162;4.516;2023-10-09T06:12:14;24.58;;;8.40;;
72904;SDS011;61048;52.162;4.516;2023-10-09T06:14:59;21.63;;;8.88;;
72904;SDS011;61048;52.162;4.516;2023-10-09T06:17:44;33.30;;;8.85;;
72904;SDS011;61048;52.162;4.516;2023-10-09T06:20:15;22.38;;;8.77;;
72904;SDS011;61048;52.162;4.516;2023-10-09T06:23:01;25.20;;;6.75;;
72904;SDS011;61048;52.162;4.516;2023-10-09T06:25:41;22.77;;;6.97;;
72904;SDS011;61048;52.162;4.516;2023-10-09T06:28:16;20.50;;;7.97;;
72904;SDS011;61048;52.162;4.516;2023-10-09T06:30:57;23.75;;;7.38;;
72904;SDS011;61048;52.162;4.516;2023-10-09T06:36:28;17.35;;;6.80;;
72904;SDS011;61048;52.162;4.516;2023-10-09T06:38:57;17.20;;;5.75;;
72904;SDS011;61048;52.162;4.516;2023-10-09T06:41:53;17.38;;;5.53;;
72904;SDS011;61048;52.162;4.516;2023-10-09T06:44:34;16.67;;;4.78;;
72904;SDS011;61048;52.162;4.516;2023-10-09T06:47:15;14.00;;;5.00;;
72904;SDS011;61048;52.162;4.516;2023-10-09T06:49:43;13.88;;;5.78;;
72904;SDS011;61048;52.162;4.516;2023-10-09T06:52:30;15.52;;;6.35;;
72904;SDS011;61048;52.162;4.516;2023-10-09T06:55:12;14.95;;;6.35;;
72904;SDS011;61048;52.162;4.516;2023-10-09T06:57:44;13.10;;;5.55;;
72904;SDS011;61048;52.162;4.516;2023-10-09T07:00:14;13.38;;;5.35;;
72904;SDS011;61048;52.162;4.516;2023-10-09T07:02:55;13.10;;;4.88;;
72904;SDS011;61048;52.162;4.516;2023-10-09T07:05:22;13.05;;;4.35;;
72904;SDS011;61048;52.162;4.516;2023-10-09T07:07:56;12.60;;;5.28;;
72904;SDS011;61048;52.162;4.516;2023-10-09T07:10:44;11.52;;;4.88;;
72904;SDS011;61048;52.162;4.516;2023-10-09T07:13:27;13.35;;;5.57;;
72904;SDS011;61048;52.162;4.516;2023-10-09T07:15:54;11.98;;;5.03;;
72904;SDS011;61048;52.162;4.516;2023-10-09T07:18:38;13.75;;;4.55;;
72904;SDS011;61048;52.162;4.516;2023-10-09T07:21:14;13.23;;;5.15;;
72904;SDS011;61048;52.162;4.516;2023-10-09T07:23:52;13.18;;;5.50;;
72904;SDS011;61048;52.162;4.516;2023-10-09T07:26:23;12.30;;;4.32;;
72904;SDS011;61048;52.162;4.516;2023-10-09T07:29:02;10.93;;;4.50;;
72904;SDS011;61048;52.162;4.516;2023-10-09T07:31:41;10.80;;;4.13;;
72904;SDS011;61048;52.162;4.516;2023-10-09T07:34:10;10.55;;;4.15;;
72904;SDS011;61048;52.162;4.516;2023-10-09T07:36:55;11.38;;;4.22;;
72904;SDS011;61048;52.162;4.516;2023-10-09T07:39:22;10.48;;;3.70;;
72904;SDS011;61048;52.162;4.516;2023-10-09T07:42:00;8.88;;;3.30;;
72904;SDS011;61048;52.162;4.516;2023-10-09T07:44:44;8.35;;;3.13;;
72904;SDS011;61048;52.162;4.516;2023-10-09T07:47:18;8.90;;;3.60;;
72904;SDS011;61048;52.162;4.516;2023-10-09T07:50:11;9.15;;;3.92;;
72904;SDS011;61048;52.162;4.516;2023-10-09T07:52:46;10.25;;;4.05;;
72904;SDS011;61048;52.162;4.516;2023-10-09T07:55:14;12.73;;;4.32;;
72904;SDS011;61048;52.162;4.516;2023-10-09T07:57:52;7.05;;;3.05;;
72904;SDS011;61048;52.162;4.516;2023-10-09T08:00:19;9.32;;;3.47;;
72904;SDS011;61048;52.162;4.516;2023-10-09T08:03:02;9.50;;;3.90;;
72904;SDS011;61048;52.162;4.516;2023-10-09T08:05:48;9.15;;;3.53;;
72904;SDS011;61048;52.162;4.516;2023-10-09T08:08:17;7.68;;;2.90;;
72904;SDS011;61048;52.162;4.516;2023-10-09T08:11:06;9.13;;;3.80;;
72904;SDS011;61048;52.162;4.516;2023-10-09T08:13:53;6.97;;;3.65;;
72904;SDS011;61048;52.162;4.516;2023-10-09T08:16:26;7.20;;;3.05;;
72904;SDS011;61048;52.162;4.516;2023-10-09T08:19:01;6.82;;;3.40;;
72904;SDS011;61048;52.162;4.516;2023-10-09T08:21:45;7.88;;;2.70;;
72904;SDS011;61048;52.162;4.516;2023-10-09T08:24:32;6.60;;;3.75;;
72904;SDS011;61048;52.162;4.516;2023-10-09T08:27:06;7.47;;;2.90;;
72904;SDS011;61048;52.162;4.516;2023-10-09T08:29:52;5.88;;;3.28;;
72904;SDS011;61048;52.162;4.516;2023-10-09T08:32:37;6.97;;;3.15;;
72904;SDS011;61048;52.162;4.516;2023-10-09T08:35:06;7.18;;;3.17;;
72904;SDS011;61048;52.162;4.516;2023-10-09T08:37:44;7.15;;;2.50;;
72904;SDS011;61048;52.162;4.516;2023-10-09T08:40:14;7.95;;;3.22;;
72904;SDS011;61048;52.162;4.516;2023-10-09T08:42:46;8.10;;;2.83;;
72904;SDS011;61048;52.162;4.516;2023-10-09T08:45:21;9.88;;;4.30;;
72904;SDS011;61048;52.162;4.516;2023-10-09T08:47:53;6.10;;;3.22;;
72904;SDS011;61048;52.162;4.516;2023-10-09T08:50:20;7.28;;;3.28;;
72904;SDS011;61048;52.162;4.516;2023-10-09T08:52:47;7.97;;;2.97;;
72904;SDS011;61048;52.162;4.516;2023-10-09T08:55:16;7.15;;;3.33;;
72904;SDS011;61048;52.162;4.516;2023-10-09T08:57:43;5.85;;;2.60;;
72904;SDS011;61048;52.162;4.516;2023-10-09T09:00:16;7.55;;;3.25;;
72904;SDS011;61048;52.162;4.516;2023-10-09T09:02:48;8.68;;;3.28;;
72904;SDS011;61048;52.162;4.516;2023-10-09T09:05:18;7.63;;;2.47;;
72904;SDS011;61048;52.162;4.516;2023-10-09T09:07:46;7.50;;;3.15;;
72904;SDS011;61048;52.162;4.516;2023-10-09T09:10:14;10.40;;;3.65;;
72904;SDS011;61048;52.162;4.516;2023-10-09T09:12:46;9.40;;;3.30;;
72904;SDS011;61048;52.162;4.516;2023-10-09T09:15:18;8.10;;;2.97;;
72904;SDS011;61048;52.162;4.516;2023-10-09T09:17:48;6.78;;;3.13;;
72904;SDS011;61048;52.162;4.516;2023-10-09T09:20:21;6.50;;;3.00;;
72904;SDS011;61048;52.162;4.516;2023-10-09T09:22:52;8.43;;;3.10;;
72904;SDS011;61048;52.162;4.516;2023-10-09T09:25:22;5.25;;;2.28;;
72904;SDS011;61048;52.162;4.516;2023-10-09T09:27:50;6.68;;;2.47;;
72904;SDS011;61048;52.162;4.516;2023-10-09T09:30:23;7.57;;;2.53;;
72904;SDS011;61048;52.162;4.516;2023-10-09T09:32:53;6.55;;;2.40;;
72904;SDS011;61048;52.162;4.516;2023-10-09T09:35:33;7.95;;;2.65;;
72904;SDS011;61048;52.162;4.516;2023-10-09T09:38:01;8.32;;;3.00;;
72904;SDS011;61048;52.162;4.516;2023-10-09T09:40:31;8.00;;;2.53;;
72904;SDS011;61048;52.162;4.516;2023-10-09T09:43:06;4.93;;;2.05;;
72904;SDS011;61048;52.162;4.516;2023-10-09T09:45:42;6.90;;;3.08;;
72904;SDS011;61048;52.162;4.516;2023-10-09T09:48:12;6.20;;;2.42;;
72904;SDS011;61048;52.162;4.516;2023-10-09T09:50:41;6.18;;;2.78;;
72904;SDS011;61048;52.162;4.516;2023-10-09T09:53:11;6.35;;;2.75;;
72904;SDS011;61048;52.162;4.516;2023-10-09T09:55:42;5.47;;;2.63;;
72904;SDS011;61048;52.162;4.516;2023-10-09T09:58:17;6.85;;;3.08;;
72904;SDS011;61048;52.162;4.516;2023-10-09T10:00:45;6.82;;;3.45;;
72904;SDS011;61048;52.162;4.516;2023-10-09T10:03:20;5.70;;;2.47;;
72904;SDS011;61048;52.162;4.516;2023-10-09T10:05:52;7.68;;;3.00;;
72904;SDS011;61048;52.162;4.516;2023-10-09T10:08:23;5.18;;;2.03;;
72904;SDS011;61048;52.162;4.516;2023-10-09T10:10:57;5.55;;;2.22;;
72904;SDS011;61048;52.162;4.516;2023-10-09T10:16:30;6.95;;;3.00;;
72904;SDS011;61048;52.162;4.516;2023-10-09T10:19:02;7.35;;;2.88;;
72904;SDS011;61048;52.162;4.516;2023-10-09T10:21:48;7.43;;;3.10;;
72904;SDS011;61048;52.162;4.516;2023-10-09T10:27:20;5.50;;;3.50;;
72904;SDS011;61048;52.162;4.516;2023-10-09T10:32:52;6.40;;;3.05;;
72904;SDS011;61048;52.162;4.516;2023-10-09T10:35:23;7.18;;;3.55;;
72904;SDS011;61048;52.162;4.516;2023-10-09T10:38:13;7.03;;;2.85;;
72904;SDS011;61048;52.162;4.516;2023-10-09T10:40:48;8.20;;;3.65;;
72904;SDS011;61048;52.162;4.516;2023-10-09T10:43:23;6.60;;;2.97;;
72904;SDS011;61048;52.162;4.516;2023-10-09T10:46:01;7.72;;;2.45;;
72904;SDS011;61048;52.162;4.516;2023-10-09T10:48:33;6.72;;;2.10;;
72904;SDS011;61048;52.162;4.516;2023-10-09T10:51:05;7.55;;;2.65;;
72904;SDS011;61048;52.162;4.516;2023-10-09T10:53:36;8.38;;;2.65;;
72904;SDS011;61048;52.162;4.516;2023-10-09T10:56:13;6.50;;;3.05;;
72904;SDS011;61048;52.162;4.516;2023-10-09T10:58:52;8.10;;;2.95;;
72904;SDS011;61048;52.162;4.516;2023-10-09T11:01:37;7.15;;;3.08;;
72904;SDS011;61048;52.162;4.516;2023-10-09T11:04:18;7.90;;;2.15;;
72904;SDS011;61048;52.162;4.516;2023-10-09T11:07:05;8.05;;;2.97;;
72904;SDS011;61048;52.162;4.516;2023-10-09T11:09:43;5.43;;;2.05;;
72904;SDS011;61048;52.162;4.516;2023-10-09T11:12:25;6.25;;;2.78;;
72904;SDS011;61048;52.162;4.516;2023-10-09T11:15:03;6.45;;;2.83;;
72904;SDS011;61048;52.162;4.516;2023-10-09T11:17:57;9.20;;;2.92;;
72904;SDS011;61048;52.162;4.516;2023-10-09T11:20:30;8.57;;;3.45;;
72904;SDS011;61048;52.162;4.516;2023-10-09T11:22:59;6.93;;;1.73;;
72904;SDS011;61048;52.162;4.516;2023-10-09T11:25:40;8.15;;;2.97;;
72904;SDS011;61048;52.162;4.516;2023-10-09T11:28:16;5.05;;;2.47;;
72904;SDS011;61048;52.162;4.516;2023-10-09T11:30:54;6.13;;;2.22;;
72904;SDS011;61048;52.162;4.516;2023-10-09T11:33:21;5.88;;;2.42;;
72904;SDS011;61048;52.162;4.516;2023-10-09T11:35:54;5.60;;;2.58;;
72904;SDS011;61048;52.162;4.516;2023-10-09T11:38:24;7.63;;;3.22;;
72904;SDS011;61048;52.162;4.516;2023-10-09T11:40:51;5.78;;;2.25;;
72904;SDS011;61048;52.162;4.516;2023-10-09T11:43:47;5.43;;;3.28;;
72904;SDS011;61048;52.162;4.516;2023-10-09T11:46:16;6.43;;;2.38;;
72904;SDS011;61048;52.162;4.516;2023-10-09T11:49:04;6.38;;;3.50;;
72904;SDS011;61048;52.162;4.516;2023-10-09T11:51:49;7.47;;;4.07;;
72904;SDS011;61048;52.162;4.516;2023-10-09T11:54:51;5.00;;;2.15;;
72904;SDS011;61048;52.162;4.516;2023-10-09T11:57:21;7.35;;;2.63;;
72904;SDS011;61048;52.162;4.516;2023-10-09T11:59:56;4.53;;;3.00;;
72904;SDS011;61048;52.162;4.516;2023-10-09T12:02:23;5.78;;;3.15;;
72904;SDS011;61048;52.162;4.516;2023-10-09T12:04:51;4.97;;;2.72;;
72904;SDS011;61048;52.162;4.516;2023-10-09T12:07:21;7.25;;;3.38;;
72904;SDS011;61048;52.162;4.516;2023-10-09T12:09:48;5.43;;;2.90;;
72904;SDS011;61048;52.162;4.516;2023-10-09T12:12:21;7.13;;;3.17;;
72904;SDS011;61048;52.162;4.516;2023-10-09T12:14:51;7.15;;;3.35;;
72904;SDS011;61048;52.162;4.516;2023-10-09T12:17:18;9.25;;;3.17;;
72904;SDS011;61048;52.162;4.516;2023-10-09T12:19:49;7.43;;;3.00;;
72904;SDS011;61048;52.162;4.516;2023-10-09T12:22:17;7.60;;;2.65;;
72904;SDS011;61048;52.162;4.516;2023-10-09T12:24:46;7.00;;;3.00;;
72904;SDS011;61048;52.162;4.516;2023-10-09T12:27:15;6.25;;;2.90;;
72904;SDS011;61048;52.162;4.516;2023-10-09T12:29:45;8.10;;;2.65;;
72904;SDS011;61048;52.162;4.516;2023-10-09T12:32:13;7.00;;;2.25;;
72904;SDS011;61048;52.162;4.516;2023-10-09T12:34:44;5.93;;;2.97;;
72904;SDS011;61048;52.162;4.516;2023-10-09T12:37:15;5.90;;;2.33;;
72904;SDS011;61048;52.162;4.516;2023-10-09T12:39:45;6.43;;;3.40;;
72904;SDS011;61048;52.162;4.516;2023-10-09T12:42:13;4.28;;;2.03;;
72904;SDS011;61048;52.162;4.516;2023-10-09T12:44:42;5.78;;;2.30;;
72904;SDS011;61048;52.162;4.516;2023-10-09T12:47:09;7.32;;;3.17;;
72904;SDS011;61048;52.162;4.516;2023-10-09T12:49:37;8.10;;;3.08;;
72904;SDS011;61048;52.162;4.516;2023-10-09T12:52:06;8.70;;;3.33;;
72904;SDS011;61048;52.162;4.516;2023-10-09T12:54:40;8.43;;;2.80;;
72904;SDS011;61048;52.162;4.516;2023-10-09T12:57:08;8.32;;;2.75;;
72904;SDS011;61048;52.162;4.516;2023-10-09T12:59:40;7.40;;;2.50;;
72904;SDS011;61048;52.162;4.516;2023-10-09T13:02:10;5.88;;;2.38;;
72904;SDS011;61048;52.162;4.516;2023-10-09T13:04:38;7.45;;;2.90;;
72904;SDS011;61048;52.162;4.516;2023-10-09T13:07:07;6.40;;;3.03;;
72904;SDS011;61048;52.162;4.516;2023-10-09T13:09:34;7.93;;;3.05;;
72904;SDS011;61048;52.162;4.516;2023-10-09T13:12:07;6.43;;;2.63;;
72904;SDS011;61048;52.162;4.516;2023-10-09T13:14:35;6.85;;;3.17;;
72904;SDS011;61048;52.162;4.516;2023-10-09T13:17:03;6.20;;;2.65;;
72904;SDS011;61048;52.162;4.516;2023-10-09T13:19:35;5.60;;;3.10;;
72904;SDS011;61048;52.162;4.516;2023-10-09T13:22:02;6.68;;;2.65;;
72904;SDS011;61048;52.162;4.516;2023-10-09T13:24:37;7.50;;;3.63;;
72904;SDS011;61048;52.162;4.516;2023-10-09T13:27:05;7.40;;;3.15;;
72904;SDS011;61048;52.162;4.516;2023-10-09T13:29:34;8.88;;;2.90;;
72904;SDS011;61048;52.162;4.516;2023-10-09T13:32:06;8.05;;;2.85;;
72904;SDS011;61048;52.162;4.516;2023-10-09T13:34:38;11.20;;;2.45;;
72904;SDS011;61048;52.162;4.516;2023-10-09T13:37:09;7.53;;;3.40;;
72904;SDS011;61048;52.162;4.516;2023-10-09T13:39:38;6.65;;;2.95;;
72904;SDS011;61048;52.162;4.516;2023-10-09T13:42:17;6.00;;;2.53;;
72904;SDS011;61048;52.162;4.516;2023-10-09T13:44:44;6.10;;;3.05;;
72904;SDS011;61048;52.162;4.516;2023-10-09T13:47:15;5.68;;;2.55;;
72904;SDS011;61048;52.162;4.516;2023-10-09T13:49:46;6.35;;;2.38;;
72904;SDS011;61048;52.162;4.516;2023-10-09T13:52:15;8.55;;;2.60;;
72904;SDS011;61048;52.162;4.516;2023-10-09T13:54:44;6.70;;;2.97;;
72904;SDS011;61048;52.162;4.516;2023-10-09T13:57:13;6.35;;;2.70;;
72904;SDS011;61048;52.162;4.516;2023-10-09T13:59:40;5.97;;;3.30;;
72904;SDS011;61048;52.162;4.516;2023-10-09T14:02:15;6.15;;;3.28;;
72904;SDS011;61048;52.162;4.516;2023-10-09T14:04:44;6.70;;;2.80;;
72904;SDS011;61048;52.162;4.516;2023-10-09T14:07:11;9.52;;;3.30;;
72904;SDS011;61048;52.162;4.516;2023-10-09T14:09:41;6.68;;;2.90;;
72904;SDS011;61048;52.162;4.516;2023-10-09T14:12:20;6.30;;;2.58;;
72904;SDS011;61048;52.162;4.516;2023-10-09T14:14:49;7.47;;;3.13;;
72904;SDS011;61048;52.162;4.516;2023-10-09T14:17:20;6.25;;;2.40;;
72904;SDS011;61048;52.162;4.516;2023-10-09T14:19:50;6.82;;;2.95;;
72904;SDS011;61048;52.162;4.516;2023-10-09T14:22:19;6.10;;;3.05;;
72904;SDS011;61048;52.162;4.516;2023-10-09T14:24:49;6.47;;;3.08;;
72904;SDS011;61048;52.162;4.516;2023-10-09T14:27:20;4.68;;;2.97;;
72904;SDS011;61048;52.162;4.516;2023-10-09T14:29:51;7.85;;;2.53;;
72904;SDS011;61048;52.162;4.516;2023-10-09T14:32:22;6.50;;;3.17;;
72904;SDS011;61048;52.162;4.516;2023-10-09T14:34:54;8.98;;;3.45;;
72904;SDS011;61048;52.162;4.516;2023-10-09T14:37:25;7.10;;;2.55;;
72904;SDS011;61048;52.162;4.516;2023-10-09T14:39:53;6.90;;;3.55;;
72904;SDS011;61048;52.162;4.516;2023-10-09T14:42:21;7.30;;;2.88;;
72904;SDS011;61048;52.162;4.516;2023-10-09T14:44:52;9.50;;;3.45;;
72904;SDS011;61048;52.162;4.516;2023-10-09T14:47:20;8.20;;;3.03;;
72904;SDS011;61048;52.162;4.516;2023-10-09T14:49:49;6.35;;;2.55;;
72904;SDS011;61048;52.162;4.516;2023-10-09T14:52:18;8.48;;;2.78;;
72904;SDS011;61048;52.162;4.516;2023-10-09T14:54:46;5.68;;;3.25;;
72904;SDS011;61048;52.162;4.516;2023-10-09T14:57:15;7.20;;;3.22;;
72904;SDS011;61048;52.162;4.516;2023-10-09T14:59:43;6.43;;;3.45;;
72904;SDS011;61048;52.162;4.516;2023-10-09T15:02:11;7.75;;;3.85;;
72904;SDS011;61048;52.162;4.516;2023-10-09T15:04:38;10.30;;;3.90;;
72904;SDS011;61048;52.162;4.516;2023-10-09T15:07:06;7.88;;;3.58;;
72904;SDS011;61048;52.162;4.516;2023-10-09T15:09:33;8.07;;;3.65;;
72904;SDS011;61048;52.162;4.516;2023-10-09T15:12:01;7.20;;;2.72;;
72904;SDS011;61048;52.162;4.516;2023-10-09T15:14:31;8.00;;;3.80;;
72904;SDS011;61048;52.162;4.516;2023-10-09T15:16:58;6.55;;;2.97;;
72904;SDS011;61048;52.162;4.516;2023-10-09T15:19:25;8.75;;;3.45;;
72904;SDS011;61048;52.162;4.516;2023-10-09T15:21:55;5.45;;;3.35;;
72904;SDS011;61048;52.162;4.516;2023-10-09T15:24:25;8.02;;;3.92;;
72904;SDS011;61048;52.162;4.516;2023-10-09T15:26:53;8.02;;;3.95;;
72904;SDS011;61048;52.162;4.516;2023-10-09T15:29:22;7.75;;;3.72;;
72904;SDS011;61048;52.162;4.516;2023-10-09T15:31:54;7.53;;;3.42;;
72904;SDS011;61048;52.162;4.516;2023-10-09T15:34:21;7.30;;;3.63;;
72904;SDS011;61048;52.162;4.516;2023-10-09T15:36:49;8.63;;;4.00;;
72904;SDS011;61048;52.162;4.516;2023-10-09T15:39:18;7.78;;;3.13;;
72904;SDS011;61048;52.162;4.516;2023-10-09T15:41:46;8.80;;;3.38;;